sensor_id;sensor_type;location;lat;lon;timestamp;P1;durP1;ratioP1;P2;durP2;ratioP2
19137;SDS011;68178;52.188;5.598;2023-04-30T00:02:26;16.60;;;12.93;;
19137;SDS011;68178;52.188;5.598;2023-04-30T00:04:55;22.55;;;13.48;;
19137;SDS011;68178;52.188;5.598;2023-04-30T00:07:20;13.45;;;11.05;;
19137;SDS011;68178;52.188;5.598;2023-04-30T00:09:46;18.83;;;12.52;;
19137;SDS011;68178;52.188;5.598;2023-04-30T00:12:15;15.98;;;11.65;;
19137;SDS011;68178;52.188;5.598;2023-04-30T00:14:41;14.70;;;11.20;;
19137;SDS011;68178;52.188;5.598;2023-04-30T00:17:06;15.93;;;10.35;;
19137;SDS011;68178;52.188;5.598;2023-04-30T00:19:32;13.25;;;10.15;;
19137;SDS011;68178;52.188;5.598;2023-04-30T00:21:57;13.82;;;9.20;;
19137;SDS011;68178;52.188;5.598;2023-04-30T00:24:25;10.98;;;8.55;;
19137;SDS011;68178;52.188;5.598;2023-04-30T00:26:51;10.82;;;8.90;;
19137;SDS011;68178;52.188;5.598;2023-04-30T00:29:16;15.40;;;10.35;;
19137;SDS011;68178;52.188;5.598;2023-04-30T00:31:42;12.50;;;9.98;;
19137;SDS011;68178;52.188;5.598;2023-04-30T00:34:08;12.30;;;7.72;;
19137;SDS011;68178;52.188;5.598;2023-04-30T00:36:33;14.85;;;9.80;;
19137;SDS011;68178;52.188;5.598;2023-04-30T00:39:03;14.35;;;9.90;;
19137;SDS011;68178;52.188;5.598;2023-04-30T00:41:29;11.13;;;9.27;;
19137;SDS011;68178;52.188;5.598;2023-04-30T00:43:55;8.70;;;7.55;;
19137;SDS011;68178;52.188;5.598;2023-04-30T00:46:21;15.98;;;8.93;;
19137;SDS011;68178;52.188;5.598;2023-04-30T00:48:46;11.75;;;8.43;;
19137;SDS011;68178;52.188;5.598;2023-04-30T00:51:13;11.45;;;9.23;;
19137;SDS011;68178;52.188;5.598;2023-04-30T00:53:39;11.40;;;8.60;;
19137;SDS011;68178;52.188;5.598;2023-04-30T00:56:05;12.48;;;9.57;;
19137;SDS011;68178;52.188;5.598;2023-04-30T00:58:33;12.98;;;9.85;;
19137;SDS011;68178;52.188;5.598;2023-04-30T01:00:59;13.18;;;9.50;;
19137;SDS011;68178;52.188;5.598;2023-04-30T01:03:27;11.52;;;9.05;;
19137;SDS011;68178;52.188;5.598;2023-04-30T01:05:52;14.80;;;9.02;;
19137;SDS011;68178;52.188;5.598;2023-04-30T01:08:18;13.45;;;8.55;;
19137;SDS011;68178;52.188;5.598;2023-04-30T01:10:47;10.68;;;8.25;;
19137;SDS011;68178;52.188;5.598;2023-04-30T01:13:28;11.57;;;8.20;;
19137;SDS011;68178;52.188;5.598;2023-04-30T01:16:38;13.05;;;9.27;;
19137;SDS011;68178;52.188;5.598;2023-04-30T01:19:08;11.57;;;9.55;;
19137;SDS011;68178;52.188;5.598;2023-04-30T01:21:38;14.02;;;10.13;;
19137;SDS011;68178;52.188;5.598;2023-04-30T01:29:22;18.13;;;11.50;;
19137;SDS011;68178;52.188;5.598;2023-04-30T01:31:51;14.48;;;10.90;;
19137;SDS011;68178;52.188;5.598;2023-04-30T01:34:16;13.85;;;10.40;;
19137;SDS011;68178;52.188;5.598;2023-04-30T01:42:20;13.85;;;9.52;;
19137;SDS011;68178;52.188;5.598;2023-04-30T01:52:52;16.73;;;12.75;;
19137;SDS011;68178;52.188;5.598;2023-04-30T01:55:36;19.73;;;13.73;;
19137;SDS011;68178;52.188;5.598;2023-04-30T01:58:11;23.55;;;14.23;;
19137;SDS011;68178;52.188;5.598;2023-04-30T02:00:39;18.90;;;12.43;;
19137;SDS011;68178;52.188;5.598;2023-04-30T02:03:05;15.27;;;11.93;;
19137;SDS011;68178;52.188;5.598;2023-04-30T02:05:30;13.63;;;10.90;;
19137;SDS011;68178;52.188;5.598;2023-04-30T02:07:57;12.52;;;10.00;;
19137;SDS011;68178;52.188;5.598;2023-04-30T02:10:23;14.77;;;10.73;;
19137;SDS011;68178;52.188;5.598;2023-04-30T02:12:50;14.40;;;10.95;;
19137;SDS011;68178;52.188;5.598;2023-04-30T02:15:16;15.00;;;11.50;;
19137;SDS011;68178;52.188;5.598;2023-04-30T02:17:42;15.95;;;12.07;;
19137;SDS011;68178;52.188;5.598;2023-04-30T02:20:08;13.20;;;10.30;;
19137;SDS011;68178;52.188;5.598;2023-04-30T02:22:34;11.93;;;9.43;;
19137;SDS011;68178;52.188;5.598;2023-04-30T02:25:00;15.07;;;10.45;;
19137;SDS011;68178;52.188;5.598;2023-04-30T02:27:28;12.68;;;10.35;;
19137;SDS011;68178;52.188;5.598;2023-04-30T02:29:55;15.70;;;9.48;;
19137;SDS011;68178;52.188;5.598;2023-04-30T02:32:21;11.57;;;9.25;;
19137;SDS011;68178;52.188;5.598;2023-04-30T02:34:46;10.95;;;8.75;;
19137;SDS011;68178;52.188;5.598;2023-04-30T02:37:12;14.63;;;9.68;;
19137;SDS011;68178;52.188;5.598;2023-04-30T02:39:37;13.50;;;9.52;;
19137;SDS011;68178;52.188;5.598;2023-04-30T02:42:03;13.65;;;10.52;;
19137;SDS011;68178;52.188;5.598;2023-04-30T02:44:30;15.55;;;10.25;;
19137;SDS011;68178;52.188;5.598;2023-04-30T02:46:56;14.95;;;10.32;;
19137;SDS011;68178;52.188;5.598;2023-04-30T02:49:22;14.00;;;10.50;;
19137;SDS011;68178;52.188;5.598;2023-04-30T02:51:47;17.67;;;9.68;;
19137;SDS011;68178;52.188;5.598;2023-04-30T02:54:13;15.85;;;9.95;;
19137;SDS011;68178;52.188;5.598;2023-04-30T02:56:38;14.02;;;10.20;;
19137;SDS011;68178;52.188;5.598;2023-04-30T02:59:04;15.35;;;10.23;;
19137;SDS011;68178;52.188;5.598;2023-04-30T03:01:30;11.57;;;8.13;;
19137;SDS011;68178;52.188;5.598;2023-04-30T03:03:55;11.38;;;8.65;;
19137;SDS011;68178;52.188;5.598;2023-04-30T03:06:22;9.98;;;7.50;;
19137;SDS011;68178;52.188;5.598;2023-04-30T03:08:47;9.80;;;7.63;;
19137;SDS011;68178;52.188;5.598;2023-04-30T03:11:13;10.18;;;7.80;;
19137;SDS011;68178;52.188;5.598;2023-04-30T03:13:39;11.55;;;7.82;;
19137;SDS011;68178;52.188;5.598;2023-04-30T03:16:05;8.93;;;7.30;;
19137;SDS011;68178;52.188;5.598;2023-04-30T03:18:30;9.45;;;6.53;;
19137;SDS011;68178;52.188;5.598;2023-04-30T03:20:56;9.35;;;7.40;;
19137;SDS011;68178;52.188;5.598;2023-04-30T03:23:22;12.43;;;8.18;;
19137;SDS011;68178;52.188;5.598;2023-04-30T03:25:48;12.20;;;7.60;;
19137;SDS011;68178;52.188;5.598;2023-04-30T03:28:14;10.10;;;7.90;;
19137;SDS011;68178;52.188;5.598;2023-04-30T03:30:40;11.13;;;8.55;;
19137;SDS011;68178;52.188;5.598;2023-04-30T03:33:05;10.07;;;8.75;;
19137;SDS011;68178;52.188;5.598;2023-04-30T03:35:32;11.07;;;8.55;;
19137;SDS011;68178;52.188;5.598;2023-04-30T03:37:58;9.60;;;7.68;;
19137;SDS011;68178;52.188;5.598;2023-04-30T03:40:24;9.63;;;7.05;;
19137;SDS011;68178;52.188;5.598;2023-04-30T03:42:50;10.23;;;7.90;;
19137;SDS011;68178;52.188;5.598;2023-04-30T03:45:15;11.05;;;8.43;;
19137;SDS011;68178;52.188;5.598;2023-04-30T03:47:43;14.32;;;8.43;;
19137;SDS011;68178;52.188;5.598;2023-04-30T03:50:09;12.25;;;8.05;;
19137;SDS011;68178;52.188;5.598;2023-04-30T03:52:35;10.43;;;8.02;;
19137;SDS011;68178;52.188;5.598;2023-04-30T03:55:02;8.70;;;7.38;;
19137;SDS011;68178;52.188;5.598;2023-04-30T03:57:28;10.30;;;7.78;;
19137;SDS011;68178;52.188;5.598;2023-04-30T03:59:53;12.05;;;7.70;;
19137;SDS011;68178;52.188;5.598;2023-04-30T04:02:19;10.50;;;8.68;;
19137;SDS011;68178;52.188;5.598;2023-04-30T04:04:45;10.52;;;8.45;;
19137;SDS011;68178;52.188;5.598;2023-04-30T04:07:12;12.48;;;9.52;;
19137;SDS011;68178;52.188;5.598;2023-04-30T04:09:39;13.35;;;8.77;;
19137;SDS011;68178;52.188;5.598;2023-04-30T04:12:04;11.13;;;8.98;;
19137;SDS011;68178;52.188;5.598;2023-04-30T04:14:30;11.40;;;9.43;;
19137;SDS011;68178;52.188;5.598;2023-04-30T04:16:59;13.60;;;9.68;;
19137;SDS011;68178;52.188;5.598;2023-04-30T04:19:26;10.70;;;9.20;;
19137;SDS011;68178;52.188;5.598;2023-04-30T04:21:52;16.83;;;9.75;;
19137;SDS011;68178;52.188;5.598;2023-04-30T04:24:17;13.85;;;9.43;;
19137;SDS011;68178;52.188;5.598;2023-04-30T04:26:43;10.90;;;8.55;;
19137;SDS011;68178;52.188;5.598;2023-04-30T04:29:09;10.32;;;8.18;;
19137;SDS011;68178;52.188;5.598;2023-04-30T04:31:36;10.57;;;8.63;;
19137;SDS011;68178;52.188;5.598;2023-04-30T04:34:05;15.18;;;8.73;;
19137;SDS011;68178;52.188;5.598;2023-04-30T04:36:31;11.50;;;8.75;;
19137;SDS011;68178;52.188;5.598;2023-04-30T04:38:58;10.77;;;8.30;;
19137;SDS011;68178;52.188;5.598;2023-04-30T04:41:28;9.60;;;7.60;;
19137;SDS011;68178;52.188;5.598;2023-04-30T04:43:54;12.02;;;8.10;;
19137;SDS011;68178;52.188;5.598;2023-04-30T04:46:20;9.57;;;7.88;;
19137;SDS011;68178;52.188;5.598;2023-04-30T04:48:47;9.38;;;7.68;;
19137;SDS011;68178;52.188;5.598;2023-04-30T04:51:13;10.80;;;8.07;;
19137;SDS011;68178;52.188;5.598;2023-04-30T04:53:38;11.77;;;7.85;;
19137;SDS011;68178;52.188;5.598;2023-04-30T04:56:04;12.45;;;8.60;;
19137;SDS011;68178;52.188;5.598;2023-04-30T04:58:32;14.55;;;8.70;;
19137;SDS011;68178;52.188;5.598;2023-04-30T05:00:58;13.00;;;10.05;;
19137;SDS011;68178;52.188;5.598;2023-04-30T05:03:27;16.63;;;10.13;;
19137;SDS011;68178;52.188;5.598;2023-04-30T05:05:53;16.02;;;10.75;;
19137;SDS011;68178;52.188;5.598;2023-04-30T05:08:18;15.73;;;11.02;;
19137;SDS011;68178;52.188;5.598;2023-04-30T05:10:44;14.07;;;11.00;;
19137;SDS011;68178;52.188;5.598;2023-04-30T05:13:09;15.85;;;11.55;;
19137;SDS011;68178;52.188;5.598;2023-04-30T05:15:35;18.80;;;11.45;;
19137;SDS011;68178;52.188;5.598;2023-04-30T05:18:01;12.15;;;10.10;;
19137;SDS011;68178;52.188;5.598;2023-04-30T05:20:27;16.88;;;10.30;;
19137;SDS011;68178;52.188;5.598;2023-04-30T05:22:52;15.07;;;9.80;;
19137;SDS011;68178;52.188;5.598;2023-04-30T05:25:18;15.75;;;9.90;;
19137;SDS011;68178;52.188;5.598;2023-04-30T05:27:43;14.00;;;10.65;;
19137;SDS011;68178;52.188;5.598;2023-04-30T05:30:09;13.48;;;10.18;;
19137;SDS011;68178;52.188;5.598;2023-04-30T05:32:35;15.40;;;10.48;;
19137;SDS011;68178;52.188;5.598;2023-04-30T05:35:01;13.60;;;9.75;;
19137;SDS011;68178;52.188;5.598;2023-04-30T05:37:26;16.92;;;10.88;;
19137;SDS011;68178;52.188;5.598;2023-04-30T05:39:52;13.98;;;11.02;;
19137;SDS011;68178;52.188;5.598;2023-04-30T05:42:20;12.02;;;9.73;;
19137;SDS011;68178;52.188;5.598;2023-04-30T05:44:47;10.43;;;9.40;;
19137;SDS011;68178;52.188;5.598;2023-04-30T05:47:13;11.88;;;8.48;;
19137;SDS011;68178;52.188;5.598;2023-04-30T05:49:39;16.50;;;10.13;;
19137;SDS011;68178;52.188;5.598;2023-04-30T05:52:04;12.45;;;8.90;;
19137;SDS011;68178;52.188;5.598;2023-04-30T05:54:30;14.02;;;9.65;;
19137;SDS011;68178;52.188;5.598;2023-04-30T05:56:56;12.32;;;8.52;;
19137;SDS011;68178;52.188;5.598;2023-04-30T05:59:25;11.35;;;8.50;;
19137;SDS011;68178;52.188;5.598;2023-04-30T06:01:51;12.10;;;8.50;;
19137;SDS011;68178;52.188;5.598;2023-04-30T06:04:16;13.15;;;8.75;;
19137;SDS011;68178;52.188;5.598;2023-04-30T06:06:42;13.45;;;8.35;;
19137;SDS011;68178;52.188;5.598;2023-04-30T06:09:08;13.27;;;8.25;;
19137;SDS011;68178;52.188;5.598;2023-04-30T06:11:34;11.75;;;7.78;;
19137;SDS011;68178;52.188;5.598;2023-04-30T06:14:02;14.07;;;8.35;;
19137;SDS011;68178;52.188;5.598;2023-04-30T06:16:28;16.38;;;8.73;;
19137;SDS011;68178;52.188;5.598;2023-04-30T06:18:54;12.48;;;8.05;;
19137;SDS011;68178;52.188;5.598;2023-04-30T06:21:20;9.55;;;8.07;;
19137;SDS011;68178;52.188;5.598;2023-04-30T06:23:45;9.80;;;7.70;;
19137;SDS011;68178;52.188;5.598;2023-04-30T06:26:11;10.32;;;6.65;;
19137;SDS011;68178;52.188;5.598;2023-04-30T06:28:39;9.75;;;7.13;;
19137;SDS011;68178;52.188;5.598;2023-04-30T06:31:07;11.63;;;8.10;;
19137;SDS011;68178;52.188;5.598;2023-04-30T06:33:33;9.80;;;7.20;;
19137;SDS011;68178;52.188;5.598;2023-04-30T06:35:58;10.60;;;8.00;;
19137;SDS011;68178;52.188;5.598;2023-04-30T06:38:24;9.55;;;6.93;;
19137;SDS011;68178;52.188;5.598;2023-04-30T06:40:50;7.93;;;6.63;;
19137;SDS011;68178;52.188;5.598;2023-04-30T06:43:15;11.23;;;6.80;;
19137;SDS011;68178;52.188;5.598;2023-04-30T06:45:41;9.90;;;6.53;;
19137;SDS011;68178;52.188;5.598;2023-04-30T06:48:10;9.60;;;7.22;;
19137;SDS011;68178;52.188;5.598;2023-04-30T06:50:35;12.45;;;6.25;;
19137;SDS011;68178;52.188;5.598;2023-04-30T06:53:08;9.85;;;5.55;;
19137;SDS011;68178;52.188;5.598;2023-04-30T06:55:37;8.27;;;6.40;;
19137;SDS011;68178;52.188;5.598;2023-04-30T06:58:02;9.10;;;5.78;;
19137;SDS011;68178;52.188;5.598;2023-04-30T07:00:30;11.05;;;6.30;;
19137;SDS011;68178;52.188;5.598;2023-04-30T07:02:59;8.65;;;6.05;;
19137;SDS011;68178;52.188;5.598;2023-04-30T07:05:28;7.40;;;5.22;;
19137;SDS011;68178;52.188;5.598;2023-04-30T07:07:53;9.63;;;5.53;;
19137;SDS011;68178;52.188;5.598;2023-04-30T07:10:19;11.88;;;5.35;;
19137;SDS011;68178;52.188;5.598;2023-04-30T07:12:45;8.77;;;5.13;;
19137;SDS011;68178;52.188;5.598;2023-04-30T07:15:10;7.93;;;5.28;;
19137;SDS011;68178;52.188;5.598;2023-04-30T07:17:36;10.05;;;5.38;;
19137;SDS011;68178;52.188;5.598;2023-04-30T07:20:02;7.03;;;5.53;;
19137;SDS011;68178;52.188;5.598;2023-04-30T07:22:29;6.18;;;5.40;;
19137;SDS011;68178;52.188;5.598;2023-04-30T07:24:55;6.07;;;5.45;;
19137;SDS011;68178;52.188;5.598;2023-04-30T07:27:21;6.57;;;5.10;;
19137;SDS011;68178;52.188;5.598;2023-04-30T07:29:47;10.07;;;5.70;;
19137;SDS011;68178;52.188;5.598;2023-04-30T07:32:13;7.13;;;5.40;;
19137;SDS011;68178;52.188;5.598;2023-04-30T07:34:40;8.90;;;5.57;;
19137;SDS011;68178;52.188;5.598;2023-04-30T07:37:06;7.32;;;5.35;;
19137;SDS011;68178;52.188;5.598;2023-04-30T07:39:32;9.18;;;5.32;;
19137;SDS011;68178;52.188;5.598;2023-04-30T07:41:57;9.88;;;4.70;;
19137;SDS011;68178;52.188;5.598;2023-04-30T07:44:23;6.43;;;3.65;;
19137;SDS011;68178;52.188;5.598;2023-04-30T07:46:48;9.65;;;4.40;;
19137;SDS011;68178;52.188;5.598;2023-04-30T07:49:14;7.80;;;4.50;;
19137;SDS011;68178;52.188;5.598;2023-04-30T07:51:39;6.90;;;4.63;;
19137;SDS011;68178;52.188;5.598;2023-04-30T07:54:06;8.05;;;4.95;;
19137;SDS011;68178;52.188;5.598;2023-04-30T07:56:31;4.07;;;3.65;;
19137;SDS011;68178;52.188;5.598;2023-04-30T07:58:57;5.45;;;3.90;;
19137;SDS011;68178;52.188;5.598;2023-04-30T08:01:23;5.95;;;4.93;;
19137;SDS011;68178;52.188;5.598;2023-04-30T08:03:48;6.32;;;4.47;;
19137;SDS011;68178;52.188;5.598;2023-04-30T08:06:14;5.47;;;3.90;;
19137;SDS011;68178;52.188;5.598;2023-04-30T08:08:40;6.45;;;3.95;;
19137;SDS011;68178;52.188;5.598;2023-04-30T08:11:05;5.15;;;3.67;;
19137;SDS011;68178;52.188;5.598;2023-04-30T08:13:31;5.82;;;3.80;;
19137;SDS011;68178;52.188;5.598;2023-04-30T08:15:56;8.30;;;3.65;;
19137;SDS011;68178;52.188;5.598;2023-04-30T08:18:22;6.88;;;3.83;;
19137;SDS011;68178;52.188;5.598;2023-04-30T08:20:47;7.18;;;4.07;;
19137;SDS011;68178;52.188;5.598;2023-04-30T08:23:13;4.28;;;3.20;;
19137;SDS011;68178;52.188;5.598;2023-04-30T08:25:40;5.35;;;3.55;;
19137;SDS011;68178;52.188;5.598;2023-04-30T08:28:06;4.70;;;3.20;;
19137;SDS011;68178;52.188;5.598;2023-04-30T08:30:31;5.50;;;3.20;;
19137;SDS011;68178;52.188;5.598;2023-04-30T08:32:57;5.35;;;3.33;;
19137;SDS011;68178;52.188;5.598;2023-04-30T08:35:23;6.97;;;3.40;;
19137;SDS011;68178;52.188;5.598;2023-04-30T08:37:48;4.55;;;3.25;;
19137;SDS011;68178;52.188;5.598;2023-04-30T08:40:14;7.47;;;3.50;;
19137;SDS011;68178;52.188;5.598;2023-04-30T08:42:40;3.45;;;2.85;;
19137;SDS011;68178;52.188;5.598;2023-04-30T08:45:10;5.25;;;2.55;;
19137;SDS011;68178;52.188;5.598;2023-04-30T08:47:37;5.22;;;3.15;;
19137;SDS011;68178;52.188;5.598;2023-04-30T08:50:04;5.22;;;3.35;;
19137;SDS011;68178;52.188;5.598;2023-04-30T08:52:30;3.38;;;3.08;;
19137;SDS011;68178;52.188;5.598;2023-04-30T08:55:00;6.78;;;4.75;;
19137;SDS011;68178;52.188;5.598;2023-04-30T08:57:25;4.53;;;2.47;;
19137;SDS011;68178;52.188;5.598;2023-04-30T08:59:52;4.38;;;3.03;;
19137;SDS011;68178;52.188;5.598;2023-04-30T09:02:18;5.80;;;3.03;;
19137;SDS011;68178;52.188;5.598;2023-04-30T09:04:44;4.60;;;3.05;;
19137;SDS011;68178;52.188;5.598;2023-04-30T09:07:11;4.90;;;2.88;;
19137;SDS011;68178;52.188;5.598;2023-04-30T09:09:38;4.63;;;3.50;;
19137;SDS011;68178;52.188;5.598;2023-04-30T09:12:13;4.18;;;2.42;;
19137;SDS011;68178;52.188;5.598;2023-04-30T09:17:28;4.30;;;3.17;;
19137;SDS011;68178;52.188;5.598;2023-04-30T09:20:05;3.58;;;3.10;;
19137;SDS011;68178;52.188;5.598;2023-04-30T09:22:35;3.00;;;2.67;;
19137;SDS011;68178;52.188;5.598;2023-04-30T09:25:01;3.72;;;3.20;;
19137;SDS011;68178;52.188;5.598;2023-04-30T09:27:31;6.13;;;2.67;;
19137;SDS011;68178;52.188;5.598;2023-04-30T09:29:56;4.20;;;2.42;;
19137;SDS011;68178;52.188;5.598;2023-04-30T09:32:22;5.38;;;3.28;;
19137;SDS011;68178;52.188;5.598;2023-04-30T09:34:47;7.65;;;5.00;;
19137;SDS011;68178;52.188;5.598;2023-04-30T09:37:14;5.60;;;3.08;;
19137;SDS011;68178;52.188;5.598;2023-04-30T09:42:16;4.10;;;2.67;;
19137;SDS011;68178;52.188;5.598;2023-04-30T09:44:43;5.63;;;2.75;;
19137;SDS011;68178;52.188;5.598;2023-04-30T09:47:16;3.88;;;3.20;;
19137;SDS011;68178;52.188;5.598;2023-04-30T09:49:43;3.25;;;2.75;;
19137;SDS011;68178;52.188;5.598;2023-04-30T09:52:13;5.53;;;3.40;;
19137;SDS011;68178;52.188;5.598;2023-04-30T09:54:39;4.10;;;2.70;;
19137;SDS011;68178;52.188;5.598;2023-04-30T09:57:08;2.75;;;2.40;;
19137;SDS011;68178;52.188;5.598;2023-04-30T09:59:35;5.25;;;2.80;;
19137;SDS011;68178;52.188;5.598;2023-04-30T10:02:05;3.08;;;2.65;;
19137;SDS011;68178;52.188;5.598;2023-04-30T10:04:35;3.63;;;2.08;;
19137;SDS011;68178;52.188;5.598;2023-04-30T10:07:07;4.72;;;3.03;;
19137;SDS011;68178;52.188;5.598;2023-04-30T10:09:48;3.95;;;3.20;;
19137;SDS011;68178;52.188;5.598;2023-04-30T10:12:18;5.00;;;3.75;;
19137;SDS011;68178;52.188;5.598;2023-04-30T10:14:52;5.97;;;3.20;;
19137;SDS011;68178;52.188;5.598;2023-04-30T10:17:21;6.65;;;3.58;;
19137;SDS011;68178;52.188;5.598;2023-04-30T10:19:51;3.53;;;3.20;;
19137;SDS011;68178;52.188;5.598;2023-04-30T10:22:21;4.32;;;2.90;;
19137;SDS011;68178;52.188;5.598;2023-04-30T10:24:47;3.17;;;2.50;;
19137;SDS011;68178;52.188;5.598;2023-04-30T10:27:14;3.08;;;2.85;;
19137;SDS011;68178;52.188;5.598;2023-04-30T10:29:40;5.03;;;2.60;;
19137;SDS011;68178;52.188;5.598;2023-04-30T10:32:06;3.55;;;2.65;;
19137;SDS011;68178;52.188;5.598;2023-04-30T10:34:48;4.80;;;2.70;;
19137;SDS011;68178;52.188;5.598;2023-04-30T10:40:10;4.75;;;2.33;;
19137;SDS011;68178;52.188;5.598;2023-04-30T10:42:36;2.60;;;2.40;;
19137;SDS011;68178;52.188;5.598;2023-04-30T10:45:02;3.65;;;2.30;;
19137;SDS011;68178;52.188;5.598;2023-04-30T10:47:28;3.45;;;2.55;;
19137;SDS011;68178;52.188;5.598;2023-04-30T10:50:01;2.67;;;2.30;;
19137;SDS011;68178;52.188;5.598;2023-04-30T10:52:28;4.05;;;2.97;;
19137;SDS011;68178;52.188;5.598;2023-04-30T10:54:54;3.13;;;2.30;;
19137;SDS011;68178;52.188;5.598;2023-04-30T10:57:19;4.22;;;2.58;;
19137;SDS011;68178;52.188;5.598;2023-04-30T10:59:52;3.58;;;2.05;;
19137;SDS011;68178;52.188;5.598;2023-04-30T11:02:42;4.05;;;2.60;;
19137;SDS011;68178;52.188;5.598;2023-04-30T11:07:49;4.22;;;3.28;;
19137;SDS011;68178;52.188;5.598;2023-04-30T11:10:23;4.13;;;2.70;;
19137;SDS011;68178;52.188;5.598;2023-04-30T11:12:52;2.60;;;2.03;;
19137;SDS011;68178;52.188;5.598;2023-04-30T11:15:25;3.65;;;2.13;;
19137;SDS011;68178;52.188;5.598;2023-04-30T11:17:56;3.90;;;2.63;;
19137;SDS011;68178;52.188;5.598;2023-04-30T11:20:25;4.43;;;2.38;;
19137;SDS011;68178;52.188;5.598;2023-04-30T11:23:10;4.82;;;2.42;;
19137;SDS011;68178;52.188;5.598;2023-04-30T11:25:42;2.55;;;2.22;;
19137;SDS011;68178;52.188;5.598;2023-04-30T11:28:12;4.22;;;2.70;;
19137;SDS011;68178;52.188;5.598;2023-04-30T11:30:40;3.92;;;2.35;;
19137;SDS011;68178;52.188;5.598;2023-04-30T11:33:14;3.45;;;2.35;;
19137;SDS011;68178;52.188;5.598;2023-04-30T11:35:41;3.10;;;2.42;;
19137;SDS011;68178;52.188;5.598;2023-04-30T11:38:07;15.55;;;10.05;;
19137;SDS011;68178;52.188;5.598;2023-04-30T11:40:36;4.03;;;2.50;;
19137;SDS011;68178;52.188;5.598;2023-04-30T11:43:02;2.80;;;2.45;;
19137;SDS011;68178;52.188;5.598;2023-04-30T11:45:28;2.65;;;2.03;;
19137;SDS011;68178;52.188;5.598;2023-04-30T11:47:56;3.17;;;1.90;;
19137;SDS011;68178;52.188;5.598;2023-04-30T11:50:23;1.98;;;1.77;;
19137;SDS011;68178;52.188;5.598;2023-04-30T11:52:53;2.05;;;1.73;;
19137;SDS011;68178;52.188;5.598;2023-04-30T11:55:20;2.67;;;1.95;;
19137;SDS011;68178;52.188;5.598;2023-04-30T11:57:48;2.25;;;2.05;;
19137;SDS011;68178;52.188;5.598;2023-04-30T12:00:18;2.85;;;2.20;;
19137;SDS011;68178;52.188;5.598;2023-04-30T12:02:45;3.25;;;2.60;;
19137;SDS011;68178;52.188;5.598;2023-04-30T12:05:16;2.25;;;1.80;;
19137;SDS011;68178;52.188;5.598;2023-04-30T12:07:45;4.18;;;1.90;;
19137;SDS011;68178;52.188;5.598;2023-04-30T12:10:13;3.97;;;1.67;;
19137;SDS011;68178;52.188;5.598;2023-04-30T12:12:38;1.98;;;1.55;;
19137;SDS011;68178;52.188;5.598;2023-04-30T12:15:11;1.58;;;1.33;;
19137;SDS011;68178;52.188;5.598;2023-04-30T12:17:38;2.25;;;1.75;;
19137;SDS011;68178;52.188;5.598;2023-04-30T12:20:03;2.13;;;1.48;;
19137;SDS011;68178;52.188;5.598;2023-04-30T12:22:29;2.50;;;2.30;;
19137;SDS011;68178;52.188;5.598;2023-04-30T12:24:58;2.95;;;2.35;;
19137;SDS011;68178;52.188;5.598;2023-04-30T12:27:37;5.50;;;4.22;;
19137;SDS011;68178;52.188;5.598;2023-04-30T12:30:04;2.75;;;1.88;;
19137;SDS011;68178;52.188;5.598;2023-04-30T12:32:38;5.28;;;2.90;;
19137;SDS011;68178;52.188;5.598;2023-04-30T12:35:08;2.08;;;1.45;;
19137;SDS011;68178;52.188;5.598;2023-04-30T12:37:44;5.18;;;2.13;;
19137;SDS011;68178;52.188;5.598;2023-04-30T12:40:14;3.38;;;2.25;;
19137;SDS011;68178;52.188;5.598;2023-04-30T12:42:41;2.72;;;2.03;;
19137;SDS011;68178;52.188;5.598;2023-04-30T12:45:08;3.08;;;2.05;;
19137;SDS011;68178;52.188;5.598;2023-04-30T12:47:41;2.85;;;1.92;;
19137;SDS011;68178;52.188;5.598;2023-04-30T12:52:34;2.42;;;1.38;;
19137;SDS011;68178;52.188;5.598;2023-04-30T12:57:41;1.77;;;1.60;;
19137;SDS011;68178;52.188;5.598;2023-04-30T13:00:06;2.47;;;1.77;;
19137;SDS011;68178;52.188;5.598;2023-04-30T13:02:32;3.70;;;2.08;;
19137;SDS011;68178;52.188;5.598;2023-04-30T13:04:58;4.70;;;2.03;;
19137;SDS011;68178;52.188;5.598;2023-04-30T13:07:24;2.60;;;1.63;;
19137;SDS011;68178;52.188;5.598;2023-04-30T13:09:49;1.90;;;1.70;;
19137;SDS011;68178;52.188;5.598;2023-04-30T13:12:15;3.10;;;1.88;;
19137;SDS011;68178;52.188;5.598;2023-04-30T13:14:40;2.95;;;1.58;;
19137;SDS011;68178;52.188;5.598;2023-04-30T13:17:06;3.08;;;1.30;;
19137;SDS011;68178;52.188;5.598;2023-04-30T13:19:33;3.78;;;1.77;;
19137;SDS011;68178;52.188;5.598;2023-04-30T13:21:59;3.85;;;1.40;;
19137;SDS011;68178;52.188;5.598;2023-04-30T13:24:25;2.65;;;1.40;;
19137;SDS011;68178;52.188;5.598;2023-04-30T13:26:51;2.65;;;2.45;;
19137;SDS011;68178;52.188;5.598;2023-04-30T13:29:17;13.75;;;10.35;;
19137;SDS011;68178;52.188;5.598;2023-04-30T13:31:45;8.13;;;6.40;;
19137;SDS011;68178;52.188;5.598;2023-04-30T13:34:12;2.97;;;2.10;;
19137;SDS011;68178;52.188;5.598;2023-04-30T13:36:38;6.80;;;3.47;;
19137;SDS011;68178;52.188;5.598;2023-04-30T13:39:04;5.00;;;3.10;;
19137;SDS011;68178;52.188;5.598;2023-04-30T13:41:30;2.75;;;1.90;;
19137;SDS011;68178;52.188;5.598;2023-04-30T13:43:56;3.45;;;2.00;;
19137;SDS011;68178;52.188;5.598;2023-04-30T13:46:22;3.75;;;1.60;;
19137;SDS011;68178;52.188;5.598;2023-04-30T13:48:48;1.15;;;1.05;;
19137;SDS011;68178;52.188;5.598;2023-04-30T13:51:15;2.70;;;1.27;;
19137;SDS011;68178;52.188;5.598;2023-04-30T13:53:41;1.45;;;1.35;;
19137;SDS011;68178;52.188;5.598;2023-04-30T13:56:06;3.75;;;2.88;;
19137;SDS011;68178;52.188;5.598;2023-04-30T13:58:32;1.67;;;1.30;;
19137;SDS011;68178;52.188;5.598;2023-04-30T14:00:57;15.90;;;13.02;;
19137;SDS011;68178;52.188;5.598;2023-04-30T14:03:23;3.55;;;1.98;;
19137;SDS011;68178;52.188;5.598;2023-04-30T14:05:49;3.83;;;2.10;;
19137;SDS011;68178;52.188;5.598;2023-04-30T14:08:15;2.13;;;1.40;;
19137;SDS011;68178;52.188;5.598;2023-04-30T14:10:41;6.30;;;3.97;;
19137;SDS011;68178;52.188;5.598;2023-04-30T14:13:06;1.13;;;1.00;;
19137;SDS011;68178;52.188;5.598;2023-04-30T14:15:32;1.85;;;1.08;;
19137;SDS011;68178;52.188;5.598;2023-04-30T14:18:02;1.23;;;0.95;;
19137;SDS011;68178;52.188;5.598;2023-04-30T14:20:28;1.77;;;1.30;;
19137;SDS011;68178;52.188;5.598;2023-04-30T14:22:55;4.25;;;2.03;;
19137;SDS011;68178;52.188;5.598;2023-04-30T14:25:21;2.63;;;1.17;;
19137;SDS011;68178;52.188;5.598;2023-04-30T14:27:47;1.25;;;1.10;;
19137;SDS011;68178;52.188;5.598;2023-04-30T14:30:13;2.42;;;1.05;;
19137;SDS011;68178;52.188;5.598;2023-04-30T14:32:39;1.65;;;1.00;;
19137;SDS011;68178;52.188;5.598;2023-04-30T14:35:05;2.22;;;1.00;;
19137;SDS011;68178;52.188;5.598;2023-04-30T14:37:31;1.55;;;1.10;;
19137;SDS011;68178;52.188;5.598;2023-04-30T14:39:56;2.92;;;1.10;;
19137;SDS011;68178;52.188;5.598;2023-04-30T14:42:24;1.23;;;0.90;;
19137;SDS011;68178;52.188;5.598;2023-04-30T14:44:53;3.60;;;1.00;;
19137;SDS011;68178;52.188;5.598;2023-04-30T14:47:19;3.40;;;1.65;;
19137;SDS011;68178;52.188;5.598;2023-04-30T14:49:45;1.48;;;1.08;;
19137;SDS011;68178;52.188;5.598;2023-04-30T14:52:10;1.48;;;1.30;;
19137;SDS011;68178;52.188;5.598;2023-04-30T14:54:37;1.85;;;1.35;;
19137;SDS011;68178;52.188;5.598;2023-04-30T14:57:03;2.50;;;1.52;;
19137;SDS011;68178;52.188;5.598;2023-04-30T14:59:29;3.50;;;1.63;;
19137;SDS011;68178;52.188;5.598;2023-04-30T15:01:56;4.65;;;1.63;;
19137;SDS011;68178;52.188;5.598;2023-04-30T15:04:21;3.00;;;1.60;;
19137;SDS011;68178;52.188;5.598;2023-04-30T15:06:47;2.55;;;1.30;;
19137;SDS011;68178;52.188;5.598;2023-04-30T15:09:12;2.08;;;1.25;;
19137;SDS011;68178;52.188;5.598;2023-04-30T15:11:38;2.33;;;1.30;;
19137;SDS011;68178;52.188;5.598;2023-04-30T15:14:03;2.42;;;1.40;;
19137;SDS011;68178;52.188;5.598;2023-04-30T15:16:29;1.65;;;1.02;;